createdAt,value
2022-10-09T00:01:40.524Z,18.76
2022-10-09T00:04:09.527Z,18.68
2022-10-09T00:06:38.528Z,18.56
2022-10-09T00:09:07.696Z,18.48
2022-10-09T00:11:37.273Z,18.43
2022-10-09T00:14:07.260Z,18.42
2022-10-09T00:16:36.482Z,18.35
2022-10-09T00:19:06.286Z,18.29
2022-10-09T00:21:36.108Z,18.20
2022-10-09T00:24:07.023Z,18.09
2022-10-09T00:26:36.150Z,18.00
2022-10-09T00:29:05.663Z,17.92
2022-10-09T00:31:34.755Z,17.82
2022-10-09T00:34:03.767Z,17.75
2022-10-09T00:36:33.719Z,17.68
2022-10-09T00:39:02.713Z,17.61
2022-10-09T00:41:35.073Z,17.50
2022-10-09T00:44:43.930Z,17.28
2022-10-09T00:47:45.194Z,17.12
2022-10-09T00:50:32.123Z,17.00
2022-10-09T00:53:04.528Z,16.86
2022-10-09T00:55:38.407Z,16.71
2022-10-09T00:58:08.217Z,16.56
2022-10-09T01:00:37.540Z,16.44
2022-10-09T01:03:06.949Z,16.34
2022-10-09T01:06:03.945Z,16.19
2022-10-09T01:08:56.827Z,16.09
2022-10-09T01:11:36.842Z,15.99
2022-10-09T01:14:34.018Z,15.86
2022-10-09T01:17:52.907Z,15.74
2022-10-09T01:20:42.508Z,15.60
2022-10-09T01:23:50.222Z,15.38
2022-10-09T01:26:19.293Z,15.11
2022-10-09T01:29:07.931Z,14.95
2022-10-09T01:31:47.313Z,14.82
2022-10-09T01:34:20.508Z,14.61
2022-10-09T01:36:50.350Z,14.48
2022-10-09T01:39:24.895Z,14.34
2022-10-09T01:41:56.188Z,14.21
2022-10-09T01:44:30.183Z,14.10
2022-10-09T01:47:00.614Z,13.98
2022-10-09T01:49:44.298Z,13.85
2022-10-09T01:52:27.275Z,13.76
2022-10-09T01:55:38.691Z,13.64
2022-10-09T01:58:17.016Z,13.51
2022-10-09T02:01:04.438Z,13.39
2022-10-09T02:03:36.713Z,13.30
2022-10-09T02:06:12.391Z,13.26
2022-10-09T02:08:42.959Z,13.17
2022-10-09T02:11:13.277Z,12.99
2022-10-09T02:13:43.801Z,12.84
2022-10-09T02:16:24.203Z,12.80
2022-10-09T02:19:26.696Z,12.72
2022-10-09T02:22:25.855Z,12.57
2022-10-09T02:24:56.071Z,12.40
2022-10-09T02:27:25.901Z,12.28
2022-10-09T02:29:56.468Z,12.17
2022-10-09T02:32:26.151Z,12.11
2022-10-09T02:34:55.271Z,12.02
2022-10-09T02:37:24.326Z,11.91
2022-10-09T02:39:53.328Z,11.79
2022-10-09T02:42:23.229Z,11.67
2022-10-09T02:44:52.213Z,11.59
2022-10-09T02:47:21.335Z,11.55
2022-10-09T02:49:50.348Z,11.53
2022-10-09T02:52:19.358Z,11.46
2022-10-09T02:54:48.671Z,11.40
2022-10-09T02:57:17.861Z,11.34
2022-10-09T02:59:46.989Z,11.25
2022-10-09T03:02:16.273Z,11.21
2022-10-09T03:04:45.457Z,11.16
2022-10-09T03:07:14.587Z,11.09
2022-10-09T03:09:43.962Z,11.02
2022-10-09T03:12:12.884Z,10.95
2022-10-09T03:14:41.977Z,10.92
2022-10-09T03:17:11.256Z,10.85
2022-10-09T03:19:40.313Z,10.77
2022-10-09T03:22:09.632Z,10.67
2022-10-09T03:24:39.075Z,10.58
2022-10-09T03:27:08.095Z,10.52
2022-10-09T03:29:37.367Z,10.47
2022-10-09T03:32:06.334Z,10.44
2022-10-09T03:34:35.421Z,10.39
2022-10-09T03:37:04.559Z,10.34
2022-10-09T03:39:33.663Z,10.31
2022-10-09T03:42:02.818Z,10.25
2022-10-09T03:44:31.878Z,10.20
2022-10-09T03:47:00.857Z,10.13
2022-10-09T03:49:30.007Z,10.07
2022-10-09T03:51:59.196Z,10.03
2022-10-09T03:54:28.314Z,9.98
2022-10-09T03:56:57.245Z,9.95
2022-10-09T03:59:26.378Z,9.87
2022-10-09T04:01:55.430Z,9.79
2022-10-09T04:04:24.390Z,9.74
2022-10-09T04:06:53.537Z,9.69
2022-10-09T04:09:22.611Z,9.57
2022-10-09T04:11:54.626Z,9.43
2022-10-09T04:14:23.710Z,9.32
2022-10-09T04:16:52.578Z,9.28
2022-10-09T04:19:21.492Z,9.25
2022-10-09T04:21:50.576Z,9.21
2022-10-09T04:24:19.783Z,9.14
2022-10-09T04:26:48.584Z,9.07
2022-10-09T04:29:17.819Z,9.02
2022-10-09T04:31:46.887Z,8.97
2022-10-09T04:34:16.447Z,8.90
2022-10-09T04:36:46.127Z,8.83
2022-10-09T04:39:15.342Z,8.79
2022-10-09T04:41:44.463Z,8.68
2022-10-09T04:44:13.710Z,8.61
2022-10-09T04:46:42.927Z,8.51
2022-10-09T04:49:16.404Z,8.36
2022-10-09T04:51:46.903Z,8.26
2022-10-09T04:54:15.986Z,8.20
2022-10-09T04:56:46.107Z,8.11
2022-10-09T04:59:15.239Z,8.01
2022-10-09T05:01:44.466Z,7.92
2022-10-09T05:04:13.559Z,7.75
2022-10-09T05:06:42.695Z,7.59
2022-10-09T05:09:11.666Z,7.54
2022-10-09T05:11:42.618Z,7.52
2022-10-09T05:14:12.065Z,7.49
2022-10-09T05:17:08.471Z,7.42
2022-10-09T05:19:30.503Z,7.41
2022-10-09T05:22:00.391Z,7.39
2022-10-09T05:24:30.272Z,7.37
2022-10-09T05:26:59.480Z,7.25
2022-10-09T05:29:28.482Z,7.10
2022-10-09T05:31:57.615Z,6.99
2022-10-09T05:34:26.666Z,6.97
2022-10-09T05:36:55.639Z,6.94
2022-10-09T05:39:24.731Z,6.92
2022-10-09T05:41:53.693Z,6.88
2022-10-09T05:44:22.901Z,6.89
2022-10-09T05:46:51.838Z,6.92
2022-10-09T05:49:20.802Z,6.88
2022-10-09T05:51:51.282Z,6.85
2022-10-09T05:54:20.869Z,6.81
2022-10-09T05:56:53.067Z,6.78
2022-10-09T05:59:24.763Z,6.77
2022-10-09T06:01:55.570Z,6.73
2022-10-09T06:04:26.600Z,6.66
2022-10-09T06:06:56.488Z,6.64
2022-10-09T06:09:27.336Z,6.60
2022-10-09T06:11:57.161Z,6.53
2022-10-09T06:14:26.151Z,6.48
2022-10-09T06:16:55.630Z,6.42
2022-10-09T06:19:24.603Z,6.34
2022-10-09T06:21:53.607Z,6.30
2022-10-09T06:24:29.114Z,6.27
2022-10-09T06:26:59.549Z,6.23
2022-10-09T06:29:28.675Z,6.19
2022-10-09T06:31:58.339Z,6.16
2022-10-09T06:34:27.328Z,6.12
2022-10-09T06:36:56.228Z,6.09
2022-10-09T06:39:27.357Z,6.05
2022-10-09T06:41:58.965Z,6.03
2022-10-09T06:44:28.371Z,6.05
2022-10-09T06:46:57.272Z,6.08
2022-10-09T06:49:26.301Z,6.13
2022-10-09T06:51:55.391Z,6.13
2022-10-09T06:54:24.192Z,6.04
2022-10-09T06:56:56.045Z,5.95
2022-10-09T06:59:25.060Z,5.85
2022-10-09T07:01:54.218Z,5.76
2022-10-09T07:04:23.323Z,5.71
2022-10-09T07:06:52.270Z,5.65
2022-10-09T07:09:21.725Z,5.52
2022-10-09T07:11:51.068Z,5.40
2022-10-09T07:14:20.562Z,5.32
2022-10-09T07:16:51.077Z,5.26
2022-10-09T07:19:21.061Z,5.23
2022-10-09T07:21:51.980Z,5.18
2022-10-09T07:24:22.270Z,5.15
2022-10-09T07:26:51.720Z,5.13
2022-10-09T07:29:21.180Z,5.09
2022-10-09T07:31:50.905Z,4.97
2022-10-09T07:34:20.040Z,4.91
2022-10-09T07:36:49.148Z,4.83
2022-10-09T07:39:22.095Z,4.83
2022-10-09T07:41:54.563Z,4.85
2022-10-09T07:44:23.840Z,4.86
2022-10-09T07:46:53.583Z,4.89
2022-10-09T07:49:22.923Z,4.92
2022-10-09T07:51:52.044Z,4.95
2022-10-09T07:54:21.019Z,4.98
2022-10-09T07:56:50.065Z,4.99
2022-10-09T07:59:19.361Z,4.98
2022-10-09T08:01:48.377Z,4.92
2022-10-09T08:04:17.252Z,4.83
2022-10-09T08:06:46.480Z,4.75
2022-10-09T08:09:15.353Z,4.70
2022-10-09T08:11:45.536Z,4.67
2022-10-09T08:14:19.221Z,4.65
2022-10-09T08:16:49.777Z,4.64
2022-10-09T08:19:18.949Z,4.63
2022-10-09T08:21:47.814Z,4.65
2022-10-09T08:24:16.927Z,4.73
2022-10-09T08:26:46.131Z,4.80
2022-10-09T08:29:17.016Z,4.84
2022-10-09T08:31:46.191Z,4.88
2022-10-09T08:34:15.589Z,4.95
2022-10-09T08:36:44.698Z,5.00
2022-10-09T08:39:14.678Z,5.09
2022-10-09T08:41:56.629Z,5.16
2022-10-09T08:44:50.166Z,5.23
2022-10-09T08:47:57.622Z,5.31
2022-10-09T08:50:39.823Z,5.34
2022-10-09T08:53:41.485Z,5.30
2022-10-09T08:56:16.815Z,5.26
2022-10-09T08:58:46.884Z,5.24
2022-10-09T09:01:20.382Z,5.22
2022-10-09T09:03:55.370Z,5.18
2022-10-09T09:06:33.620Z,5.13
2022-10-09T09:09:28.029Z,5.07
2022-10-09T09:12:10.519Z,5.01
2022-10-09T09:15:14.628Z,4.98
2022-10-09T09:18:06.002Z,4.93
2022-10-09T09:20:54.711Z,4.91
2022-10-09T09:23:31.834Z,4.87
2022-10-09T09:26:02.501Z,4.86
2022-10-09T09:28:36.238Z,4.85
2022-10-09T09:31:29.308Z,4.84
2022-10-09T09:34:49.391Z,4.83
2022-10-09T09:37:18.729Z,4.81
2022-10-09T09:40:34.985Z,4.79
2022-10-09T09:42:37.257Z,4.78
2022-10-09T09:45:13.909Z,4.76
2022-10-09T09:47:52.342Z,4.72
2022-10-09T09:50:59.969Z,4.66
2022-10-09T09:53:42.295Z,4.60
2022-10-09T09:56:12.366Z,4.55
2022-10-09T09:58:56.393Z,4.51
2022-10-09T10:01:32.739Z,4.48
2022-10-09T10:04:05.933Z,4.47
2022-10-09T10:06:45.148Z,4.45
2022-10-09T10:09:21.698Z,4.43
2022-10-09T10:12:05.129Z,4.39
2022-10-09T10:14:35.787Z,4.37
2022-10-09T10:17:04.806Z,4.32
2022-10-09T10:19:39.812Z,4.30
2022-10-09T10:22:26.528Z,4.26
2022-10-09T10:25:00.326Z,4.22
2022-10-09T10:27:38.296Z,4.17
2022-10-09T10:30:13.662Z,4.18
2022-10-09T10:32:56.500Z,4.18
2022-10-09T10:35:54.582Z,4.17
2022-10-09T10:38:31.901Z,4.13
2022-10-09T10:41:32.022Z,4.14
2022-10-09T10:44:15.674Z,4.13
2022-10-09T10:47:01.032Z,4.14
2022-10-09T10:49:33.671Z,4.12
2022-10-09T10:52:21.210Z,4.10
2022-10-09T10:55:21.994Z,4.08
2022-10-09T10:58:25.568Z,4.04
2022-10-09T11:01:34.246Z,3.98
2022-10-09T11:05:02.101Z,3.91
2022-10-09T11:07:36.514Z,3.85
2022-10-09T11:11:11.166Z,3.81
2022-10-09T11:14:08.599Z,3.82
2022-10-09T11:16:55.816Z,3.84
2022-10-09T11:19:45.908Z,3.84
2022-10-09T11:22:41.816Z,3.84
2022-10-09T11:25:33.939Z,3.85
2022-10-09T11:28:17.856Z,3.82
2022-10-09T11:31:13.470Z,3.79
2022-10-09T11:33:52.530Z,3.77
2022-10-09T11:36:35.911Z,3.74
2022-10-09T11:39:14.137Z,3.67
2022-10-09T11:41:47.698Z,3.60
2022-10-09T11:44:33.895Z,3.55
2022-10-09T11:47:34.581Z,3.51
2022-10-09T11:50:30.867Z,3.47
2022-10-09T11:53:05.254Z,3.40
2022-10-09T11:55:36.552Z,3.37
2022-10-09T11:58:26.909Z,3.36
2022-10-09T12:01:11.318Z,3.38
2022-10-09T12:03:42.346Z,3.40
2022-10-09T12:06:19.650Z,3.42
2022-10-09T12:09:04.773Z,3.42
2022-10-09T12:11:36.040Z,3.45
2022-10-09T12:14:09.537Z,3.45
2022-10-09T12:16:44.596Z,3.45
2022-10-09T12:19:22.185Z,3.45
2022-10-09T12:22:24.632Z,3.40
2022-10-09T12:25:05.017Z,3.38
2022-10-09T12:27:39.840Z,3.32
2022-10-09T12:30:15.674Z,3.28
2022-10-09T12:33:17.281Z,3.22
2022-10-09T12:35:58.854Z,3.19
2022-10-09T12:38:35.103Z,3.14
2022-10-09T12:41:20.062Z,3.08
2022-10-09T12:43:56.015Z,3.02
2022-10-09T12:46:38.358Z,2.99
2022-10-09T12:49:22.915Z,2.97
2022-10-09T12:51:59.112Z,2.98
2022-10-09T12:54:31.956Z,2.94
2022-10-09T12:57:02.866Z,2.93
2022-10-09T12:59:32.161Z,2.94
2022-10-09T13:02:03.261Z,2.92
2022-10-09T13:04:35.335Z,2.90
2022-10-09T13:07:19.978Z,2.87
2022-10-09T13:09:49.473Z,2.87
2022-10-09T13:12:29.930Z,2.86
2022-10-09T13:15:08.933Z,2.83
2022-10-09T13:17:43.146Z,2.74
2022-10-09T13:20:14.926Z,2.71
2022-10-09T13:22:59.504Z,2.69
2022-10-09T13:25:35.573Z,2.65
2022-10-09T13:28:06.225Z,2.63
2022-10-09T13:30:35.750Z,2.62
2022-10-09T13:33:04.943Z,2.61
2022-10-09T13:35:34.036Z,2.62
2022-10-09T13:38:03.173Z,2.65
2022-10-09T13:40:32.236Z,2.67
2022-10-09T13:43:06.899Z,2.68
2022-10-09T13:48:58.796Z,2.62
2022-10-09T13:51:27.999Z,2.55
2022-10-09T13:53:57.199Z,2.50
2022-10-09T13:56:27.853Z,2.45
2022-10-09T13:58:57.248Z,2.39
2022-10-09T14:01:27.126Z,2.36
2022-10-09T14:03:59.445Z,2.31
2022-10-09T14:06:28.777Z,2.28
2022-10-09T14:08:58.697Z,2.30
2022-10-09T14:11:28.087Z,2.29
2022-10-09T14:13:59.495Z,2.33
2022-10-09T14:16:30.992Z,2.32
2022-10-09T14:19:03.356Z,2.31
2022-10-09T14:21:33.286Z,2.32
2022-10-09T14:24:04.670Z,2.31
2022-10-09T14:26:35.223Z,2.24
2022-10-09T14:29:05.051Z,2.20
2022-10-09T14:31:34.104Z,2.16
2022-10-09T14:34:03.384Z,2.13
2022-10-09T14:36:33.107Z,2.10
2022-10-09T14:39:02.862Z,2.09
2022-10-09T14:41:36.822Z,2.10
2022-10-09T14:44:08.207Z,2.13
2022-10-09T14:46:40.426Z,2.16
2022-10-09T14:49:11.612Z,2.24
2022-10-09T14:51:45.874Z,2.32
2022-10-09T14:54:15.406Z,2.38
2022-10-09T14:56:45.666Z,2.43
2022-10-09T14:59:14.802Z,2.42
2022-10-09T15:01:43.991Z,2.41
2022-10-09T15:04:15.220Z,2.38
2022-10-09T15:06:44.299Z,2.37
2022-10-09T15:09:13.246Z,2.33
2022-10-09T15:11:42.711Z,2.29
2022-10-09T15:14:12.335Z,2.25
2022-10-09T15:16:41.467Z,2.20
2022-10-09T15:19:10.800Z,2.17
2022-10-09T15:21:40.111Z,2.16
2022-10-09T15:24:10.832Z,2.14
2022-10-09T15:26:40.045Z,2.14
2022-10-09T15:29:13.311Z,2.14
2022-10-09T15:31:43.728Z,2.16
2022-10-09T15:34:20.082Z,2.22
2022-10-09T15:36:49.286Z,2.31
2022-10-09T15:39:18.618Z,2.39
2022-10-09T15:41:48.833Z,2.45
2022-10-09T15:44:21.492Z,2.54
2022-10-09T15:46:51.489Z,2.61
2022-10-09T15:49:20.998Z,2.69
2022-10-09T15:51:51.475Z,2.75
2022-10-09T15:54:20.470Z,2.82
2022-10-09T15:56:49.818Z,2.89
2022-10-09T15:59:19.042Z,2.96
2022-10-09T16:01:49.480Z,3.02
2022-10-09T16:04:18.752Z,3.11
2022-10-09T16:06:48.398Z,3.21
2022-10-09T16:09:17.424Z,3.37
2022-10-09T16:11:46.708Z,3.55
2022-10-09T16:14:15.851Z,3.71
2022-10-09T16:16:45.201Z,3.87
2022-10-09T16:19:14.947Z,3.98
2022-10-09T16:21:44.315Z,4.09
2022-10-09T16:24:13.489Z,4.21
2022-10-09T16:26:42.723Z,4.34
2022-10-09T16:29:15.169Z,4.47
2022-10-09T16:31:44.265Z,4.59
2022-10-09T16:34:13.448Z,4.71
2022-10-09T16:36:42.863Z,4.82
2022-10-09T16:39:12.107Z,4.96
2022-10-09T16:41:42.189Z,5.05
2022-10-09T16:44:18.007Z,5.17
2022-10-09T16:46:47.825Z,5.23
2022-10-09T16:49:22.910Z,5.29
2022-10-09T16:51:54.482Z,5.36
2022-10-09T16:54:23.643Z,5.47
2022-10-09T16:56:52.972Z,5.64
2022-10-09T16:59:22.446Z,5.83
2022-10-09T17:01:52.377Z,5.99
2022-10-09T17:04:21.697Z,6.20
2022-10-09T17:06:52.247Z,6.36
2022-10-09T17:09:22.670Z,6.50
2022-10-09T17:11:51.870Z,6.62
2022-10-09T17:14:20.933Z,6.68
2022-10-09T17:16:50.863Z,6.76
2022-10-09T17:19:19.950Z,6.89
2022-10-09T17:21:48.971Z,7.19
2022-10-09T17:24:18.330Z,7.29
2022-10-09T17:26:47.830Z,7.30
2022-10-09T17:29:17.025Z,7.33
2022-10-09T17:31:46.084Z,7.38
2022-10-09T17:34:15.476Z,7.42
2022-10-09T17:36:46.966Z,7.50
2022-10-09T17:39:19.120Z,7.55
2022-10-09T17:41:50.178Z,7.60
2022-10-09T17:44:20.964Z,7.67
2022-10-09T17:46:50.431Z,7.73
2022-10-09T17:49:19.893Z,7.79
2022-10-09T17:51:49.824Z,7.87
2022-10-09T17:54:19.174Z,7.96
2022-10-09T17:56:48.745Z,8.03
2022-10-09T17:59:17.980Z,8.11
2022-10-09T18:01:48.352Z,8.20
2022-10-09T18:04:19.054Z,8.28
2022-10-09T18:06:48.232Z,8.37
2022-10-09T18:09:17.428Z,8.45
2022-10-09T18:11:46.867Z,8.53
2022-10-09T18:14:16.177Z,8.62
2022-10-09T18:16:45.771Z,8.75
2022-10-09T18:19:22.538Z,8.83
2022-10-09T18:21:52.259Z,8.93
2022-10-09T18:24:21.671Z,9.05
2022-10-09T18:26:50.932Z,9.16
2022-10-09T18:29:20.150Z,9.23
2022-10-09T18:31:49.171Z,9.27
2022-10-09T18:34:18.767Z,9.32
2022-10-09T18:36:48.338Z,9.38
2022-10-09T18:39:17.561Z,9.43
2022-10-09T18:41:47.421Z,9.48
2022-10-09T18:44:20.875Z,9.60
2022-10-09T18:47:00.897Z,9.66
2022-10-09T18:49:32.878Z,9.84
2022-10-09T18:52:04.721Z,9.99
2022-10-09T18:54:34.431Z,10.08
2022-10-09T18:57:05.575Z,10.21
2022-10-09T18:59:38.860Z,10.28
2022-10-09T19:02:11.521Z,10.35
2022-10-09T19:04:41.152Z,10.44
2022-10-09T19:07:10.442Z,10.53
2022-10-09T19:09:39.613Z,10.63
2022-10-09T19:12:08.987Z,10.70
2022-10-09T19:14:38.532Z,10.78
2022-10-09T19:17:08.429Z,10.92
2022-10-09T19:19:38.643Z,11.08
2022-10-09T19:22:14.075Z,11.16
2022-10-09T19:24:45.361Z,11.22
2022-10-09T19:27:14.722Z,11.30
2022-10-09T19:29:43.755Z,11.37
2022-10-09T19:32:12.807Z,11.46
2022-10-09T19:34:41.969Z,11.57
2022-10-09T19:37:10.840Z,11.65
2022-10-09T19:39:39.913Z,11.77
2022-10-09T19:42:09.068Z,11.92
2022-10-09T19:44:38.178Z,12.00
2022-10-09T19:47:07.063Z,12.05
2022-10-09T19:49:36.164Z,12.16
2022-10-09T19:52:05.702Z,12.27
2022-10-09T19:54:36.773Z,12.35
2022-10-09T19:57:05.934Z,12.43
2022-10-09T19:59:35.070Z,12.51
2022-10-09T20:02:04.163Z,12.59
2022-10-09T20:04:33.145Z,12.67
2022-10-09T20:07:02.164Z,12.74
2022-10-09T20:09:31.318Z,12.82
2022-10-09T20:12:00.614Z,12.90
2022-10-09T20:14:31.028Z,12.97
2022-10-09T20:17:00.042Z,13.06
2022-10-09T20:19:31.868Z,13.14
2022-10-09T20:22:00.846Z,13.22
2022-10-09T20:24:29.821Z,13.32
2022-10-09T20:26:58.901Z,13.44
2022-10-09T20:29:28.359Z,13.53
2022-10-09T20:31:57.587Z,13.63
2022-10-09T20:34:27.988Z,13.73
2022-10-09T20:36:57.350Z,13.82
2022-10-09T20:39:26.304Z,13.91
2022-10-09T20:41:55.457Z,13.97
2022-10-09T20:44:24.497Z,14.01
2022-10-09T20:46:57.589Z,14.07
2022-10-09T20:49:26.660Z,14.20
2022-10-09T20:51:57.930Z,14.24
2022-10-09T20:54:27.134Z,14.29
2022-10-09T20:56:56.100Z,14.37
2022-10-09T20:59:25.192Z,14.42
2022-10-09T21:01:54.817Z,14.47
2022-10-09T21:04:23.817Z,14.52
2022-10-09T21:06:52.785Z,14.56
2022-10-09T21:09:22.037Z,14.60
2022-10-09T21:11:51.839Z,14.66
2022-10-09T21:14:20.782Z,14.69
2022-10-09T21:16:49.993Z,14.70
2022-10-09T21:19:19.294Z,14.77
2022-10-09T21:21:51.036Z,14.83
2022-10-09T21:24:20.758Z,14.92
2022-10-09T21:26:49.885Z,14.99
2022-10-09T21:29:18.977Z,15.01
2022-10-09T21:31:50.521Z,15.02
2022-10-09T21:34:19.610Z,15.06
2022-10-09T21:37:19.453Z,15.13
2022-10-09T21:39:40.452Z,15.24
2022-10-09T21:42:09.507Z,15.33
2022-10-09T21:44:38.633Z,15.34
2022-10-09T21:47:07.621Z,15.36
2022-10-09T21:49:37.050Z,15.39
2022-10-09T21:52:05.993Z,15.41
2022-10-09T21:54:34.877Z,15.42
2022-10-09T21:57:03.979Z,15.45
2022-10-09T21:59:33.069Z,15.52
2022-10-09T22:02:02.048Z,15.53
2022-10-09T22:04:31.309Z,15.57
2022-10-09T22:07:00.294Z,15.66
2022-10-09T22:09:32.035Z,15.83
2022-10-09T22:12:01.415Z,15.94
2022-10-09T22:14:30.526Z,16.03
2022-10-09T22:16:59.615Z,16.01
2022-10-09T22:19:28.588Z,15.98
2022-10-09T22:21:57.437Z,16.03
2022-10-09T22:24:29.219Z,16.12
2022-10-09T22:26:59.197Z,16.13
2022-10-09T22:29:28.794Z,16.17
2022-10-09T22:31:57.755Z,16.25
2022-10-09T22:34:26.984Z,16.49
2022-10-09T22:36:56.414Z,16.56
2022-10-09T22:39:25.677Z,16.69
2022-10-09T22:41:54.658Z,16.73
2022-10-09T22:44:23.618Z,16.74
2022-10-09T22:46:52.923Z,16.75
2022-10-09T22:49:25.113Z,16.79
2022-10-09T22:51:54.098Z,16.82
2022-10-09T22:54:23.203Z,16.93
2022-10-09T22:56:52.287Z,17.10
2022-10-09T22:59:21.403Z,17.25
2022-10-09T23:01:55.488Z,17.33
2022-10-09T23:04:25.608Z,17.33
2022-10-09T23:07:00.026Z,17.35
2022-10-09T23:09:32.970Z,17.34
2022-10-09T23:12:02.456Z,17.25
2022-10-09T23:14:31.507Z,17.16
2022-10-09T23:17:00.448Z,17.20
2022-10-09T23:19:29.714Z,17.34
2022-10-09T23:21:59.060Z,17.41
2022-10-09T23:24:28.145Z,17.41
2022-10-09T23:26:57.196Z,17.45
2022-10-09T23:29:26.293Z,17.52
2022-10-09T23:31:55.538Z,17.55
2022-10-09T23:34:24.874Z,17.61
2022-10-09T23:36:53.869Z,17.70
2022-10-09T23:39:23.002Z,17.83
2022-10-09T23:41:51.959Z,17.87
2022-10-09T23:44:22.307Z,17.90
2022-10-09T23:46:51.454Z,17.94
2022-10-09T23:49:20.426Z,17.97
2022-10-09T23:51:49.397Z,17.97
2022-10-09T23:54:18.556Z,17.95
2022-10-09T23:56:47.578Z,17.90
2022-10-09T23:59:16.469Z,17.90
